createdAt,value
2019-03-03T07:27:08.467Z,4.13
2019-03-03T07:32:11.453Z,4.20
2019-03-03T07:37:14.420Z,4.40
2019-03-03T07:42:17.422Z,4.00
2019-03-03T07:47:20.357Z,4.30
2019-03-03T07:52:23.367Z,4.10
2019-03-03T07:57:27.180Z,3.70
2019-03-03T08:02:30.173Z,4.53
2019-03-03T08:07:33.123Z,5.00
2019-03-03T08:12:36.393Z,4.70
2019-03-03T08:17:39.580Z,4.40
2019-03-03T08:22:42.775Z,5.17
2019-03-03T08:27:46.278Z,5.37
2019-03-03T08:32:49.446Z,4.83
2019-03-03T08:38:14.694Z,4.23
2019-03-03T08:43:39.121Z,5.10
2019-03-03T08:48:59.563Z,5.10
2019-03-03T08:54:22.481Z,5.23
2019-03-03T08:59:35.249Z,4.20
2019-03-03T09:04:54.981Z,4.70
2019-03-03T09:10:25.331Z,5.00
2019-03-03T09:15:50.159Z,4.90
2019-03-03T09:21:04.067Z,4.17
2019-03-03T09:26:46.066Z,4.30
2019-03-03T09:32:11.797Z,4.60
2019-03-03T09:37:33.022Z,4.50
2019-03-03T09:42:45.474Z,4.13
2019-03-03T09:48:10.829Z,4.73
2019-03-03T09:53:22.409Z,3.70
2019-03-03T09:58:43.339Z,4.90
2019-03-03T10:04:04.672Z,4.27
2019-03-03T10:09:25.610Z,4.17
2019-03-03T10:14:50.561Z,3.90
2019-03-03T10:20:13.020Z,3.80
2019-03-03T10:25:34.776Z,3.60
2019-03-03T10:30:53.151Z,3.27
2019-03-03T10:36:14.535Z,3.60
2019-03-03T10:41:43.282Z,2.77
2019-03-03T10:47:05.934Z,3.50
2019-03-03T10:52:34.897Z,2.47
2019-03-03T10:58:00.331Z,2.90
2019-03-03T11:03:16.040Z,2.67
2019-03-03T11:08:41.699Z,2.87
2019-03-03T11:14:07.581Z,2.33
2019-03-03T11:19:24.519Z,2.80
2019-03-03T11:24:46.447Z,3.20
2019-03-03T11:30:14.875Z,2.77
2019-03-03T11:35:38.023Z,2.50
2019-03-03T11:41:03.451Z,2.97
2019-03-03T11:46:11.741Z,2.27
2019-03-03T11:51:46.607Z,2.40
2019-03-03T11:56:55.809Z,2.53
2019-03-03T12:02:17.151Z,2.17
2019-03-03T12:07:30.722Z,1.90
2019-03-03T12:12:51.337Z,2.20
2019-03-03T12:18:10.692Z,2.23
2019-03-03T12:23:43.802Z,2.27
2019-03-03T12:29:06.297Z,2.00
2019-03-03T12:34:39.676Z,2.67
2019-03-03T12:39:51.383Z,2.20
2019-03-03T12:45:04.866Z,2.60
2019-03-03T12:50:31.641Z,2.83
2019-03-03T12:55:52.544Z,2.40
2019-03-03T13:01:05.527Z,2.33
2019-03-03T13:06:33.720Z,2.50
2019-03-03T13:11:50.931Z,2.50
2019-03-03T13:17:13.434Z,2.47
2019-03-03T13:22:24.234Z,3.00
2019-03-03T13:27:52.484Z,3.10
2019-03-03T13:33:02.009Z,2.57
2019-03-03T13:38:23.346Z,2.67
2019-03-03T13:43:26.057Z,3.40
2019-03-03T13:48:28.798Z,3.17
2019-03-03T13:53:31.506Z,3.80
2019-03-03T13:58:34.316Z,3.30
2019-03-03T14:03:37.112Z,3.87
2019-03-03T14:08:39.833Z,4.17
2019-03-03T14:13:42.537Z,4.80
2019-03-03T14:18:45.280Z,5.20
2019-03-03T14:23:49.486Z,4.80
2019-03-03T14:28:52.424Z,4.80
2019-03-03T14:33:55.222Z,4.63
2019-03-03T14:38:57.940Z,4.10
2019-03-03T14:44:00.632Z,5.03
2019-03-03T14:49:03.345Z,4.17
2019-03-03T14:54:06.052Z,4.20
2019-03-03T14:59:08.750Z,4.77
2019-03-03T15:04:11.449Z,4.00
2019-03-03T15:09:19.783Z,3.67
2019-03-03T15:14:22.481Z,4.27
2019-03-03T15:19:25.177Z,3.53
2019-03-03T15:24:27.877Z,3.67
2019-03-03T15:29:30.594Z,3.73
2019-03-03T15:34:33.329Z,4.00
2019-03-03T15:39:36.129Z,3.20
2019-03-03T15:44:38.822Z,3.07
2019-03-03T15:49:41.523Z,3.07
2019-03-03T15:54:44.206Z,3.47
2019-03-03T15:59:47.007Z,3.20
2019-03-03T16:04:49.879Z,3.53
2019-03-03T16:09:53.251Z,3.50
2019-03-03T16:14:55.981Z,3.37
2019-03-03T16:19:58.809Z,3.17
2019-03-03T16:25:01.511Z,3.63
2019-03-03T16:30:04.790Z,3.37
2019-03-03T16:35:08.296Z,3.70
2019-03-03T16:40:13.888Z,4.20
2019-03-03T16:45:16.607Z,4.70
2019-03-03T16:50:19.435Z,4.80
2019-03-03T16:55:22.234Z,5.90
2019-03-03T17:00:24.931Z,5.50
2019-03-03T17:05:27.649Z,5.87
2019-03-03T17:10:32.030Z,6.07
2019-03-03T17:15:34.769Z,5.50
2019-03-03T17:20:37.465Z,6.00
2019-03-03T17:25:40.181Z,5.83
2019-03-03T17:30:42.980Z,6.13
2019-03-03T17:35:46.115Z,5.80
2019-03-03T17:40:48.842Z,5.87
2019-03-03T17:45:51.566Z,6.10
2019-03-03T17:50:54.275Z,5.87
2019-03-03T17:55:56.971Z,6.50
2019-03-03T18:00:59.670Z,6.33
2019-03-03T18:06:02.376Z,5.73
2019-03-03T18:11:05.099Z,5.87
2019-03-03T18:16:07.778Z,5.57
2019-03-03T18:21:10.500Z,4.80
2019-03-03T18:26:13.240Z,5.20
2019-03-03T18:31:15.935Z,4.97
2019-03-03T18:36:18.661Z,5.80
2019-03-03T18:41:21.363Z,5.50
2019-03-03T18:46:24.051Z,4.90
2019-03-03T18:51:26.864Z,4.50
2019-03-03T18:56:29.565Z,4.40
2019-03-03T19:01:32.277Z,4.70
2019-03-03T19:06:35.084Z,3.83
2019-03-03T19:11:40.077Z,5.03
2019-03-03T19:16:45.481Z,3.43
2019-03-03T19:21:49.953Z,3.93
2019-03-03T19:26:52.719Z,3.00
2019-03-03T19:31:55.427Z,3.60
2019-03-03T19:36:59.202Z,3.07
2019-03-03T19:42:02.041Z,3.60
2019-03-03T19:47:06.913Z,3.13
2019-03-03T19:52:09.930Z,3.00
2019-03-03T19:57:12.786Z,3.30
2019-03-03T20:02:18.562Z,3.20
2019-03-03T20:07:21.249Z,3.10
2019-03-03T20:12:23.988Z,3.60
2019-03-03T20:17:26.702Z,2.97
2019-03-03T20:22:29.432Z,3.50
2019-03-03T20:27:32.142Z,3.60
2019-03-03T20:32:34.840Z,3.90
2019-03-03T20:37:37.524Z,3.57
2019-03-03T20:42:40.268Z,3.33
2019-03-03T20:47:42.972Z,2.93
2019-03-03T20:52:45.769Z,3.03
2019-03-03T20:57:48.506Z,3.53
2019-03-03T21:02:51.218Z,2.83
2019-03-03T21:07:54.050Z,2.80
2019-03-03T21:12:56.746Z,3.57
2019-03-03T21:17:59.457Z,3.30
2019-03-03T21:23:02.167Z,3.30
2019-03-03T21:28:04.879Z,4.10
2019-03-03T21:33:07.595Z,2.67
2019-03-03T21:38:10.309Z,3.17
2019-03-03T21:43:13.027Z,3.13
2019-03-03T21:48:15.704Z,3.17
2019-03-03T21:53:18.422Z,2.90
2019-03-03T21:58:21.122Z,3.20
2019-03-03T22:03:23.847Z,3.20
2019-03-03T22:08:26.604Z,2.80
2019-03-03T22:13:29.314Z,3.00
2019-03-03T22:18:32.046Z,3.40
2019-03-03T22:23:34.743Z,2.40
2019-03-03T22:28:37.465Z,3.30
2019-03-03T22:33:40.167Z,3.20
2019-03-03T22:38:42.875Z,3.10
2019-03-03T22:43:45.579Z,2.63
2019-03-03T22:48:48.287Z,2.80
2019-03-03T22:53:50.989Z,2.67
2019-03-03T22:58:53.675Z,2.40
2019-03-03T23:04:43.318Z,2.77
2019-03-03T23:10:40.121Z,3.13
2019-03-03T23:16:58.161Z,3.00
2019-03-03T23:23:18.018Z,3.20
2019-03-03T23:28:22.531Z,3.10
2019-03-03T23:33:25.224Z,2.90
2019-03-03T23:38:27.923Z,2.87
2019-03-03T23:43:30.628Z,2.70
2019-03-03T23:48:33.746Z,2.70
2019-03-03T23:53:36.450Z,2.50
2019-03-03T23:58:39.163Z,2.93
